createdAt,value
2022-08-03T00:01:46.861Z,101093.69
2022-08-03T00:04:13.310Z,101086.63
2022-08-03T00:06:39.920Z,101081.16
2022-08-03T00:09:06.280Z,101085.00
2022-08-03T00:11:32.545Z,101082.53
2022-08-03T00:13:59.029Z,101087.97
2022-08-03T00:16:25.449Z,101075.47
2022-08-03T00:18:51.794Z,101077.09
2022-08-03T00:21:18.243Z,101071.66
2022-08-03T00:23:51.587Z,101074.63
2022-08-03T00:26:18.960Z,101072.75
2022-08-03T00:28:45.388Z,101067.56
2022-08-03T00:31:13.701Z,101065.94
2022-08-03T00:33:57.989Z,101071.66
2022-08-03T00:36:26.482Z,101065.94
2022-08-03T00:38:52.822Z,101069.72
2022-08-03T00:41:19.175Z,101070.03
2022-08-03T00:43:45.802Z,101064.56
2022-08-03T00:46:12.180Z,101068.38
2022-08-03T00:48:39.638Z,101065.38
2022-08-03T00:51:05.975Z,101065.66
2022-08-03T00:53:32.314Z,101058.84
2022-08-03T00:55:58.660Z,101065.91
2022-08-03T00:58:26.510Z,101069.72
2022-08-03T01:00:52.970Z,101065.38
2022-08-03T01:03:19.447Z,101062.94
2022-08-03T01:05:45.910Z,101061.03
2022-08-03T01:08:12.842Z,101067.00
2022-08-03T01:10:39.265Z,101064.56
2022-08-03T01:13:05.719Z,101061.56
2022-08-03T01:15:40.308Z,101061.28
2022-08-03T01:18:07.234Z,101059.94
2022-08-03T01:20:33.607Z,101061.03
2022-08-03T01:23:00.127Z,101056.66
2022-08-03T01:25:26.678Z,101065.91
2022-08-03T01:27:53.074Z,101057.47
2022-08-03T01:30:19.585Z,101057.22
2022-08-03T01:32:58.668Z,101055.28
2022-08-03T01:35:27.673Z,101053.66
2022-08-03T01:37:54.474Z,101049.31
2022-08-03T01:40:20.871Z,101049.56
2022-08-03T01:42:47.200Z,101055.81
2022-08-03T01:45:13.632Z,101047.94
2022-08-03T01:47:39.993Z,101046.56
2022-08-03T01:50:06.380Z,101045.75
2022-08-03T01:52:32.810Z,101039.78
2022-08-03T01:54:59.379Z,101043.84
2022-08-03T01:57:25.701Z,101041.66
2022-08-03T01:59:52.194Z,101037.03
2022-08-03T02:02:33.706Z,101043.56
2022-08-03T02:05:00.688Z,101036.22
2022-08-03T02:07:27.079Z,101038.09
2022-08-03T02:09:53.456Z,101034.59
2022-08-03T02:12:19.956Z,101031.03
2022-08-03T02:14:46.404Z,101037.03
2022-08-03T02:17:12.938Z,101028.06
2022-08-03T02:19:39.685Z,101031.59
2022-08-03T02:22:06.051Z,101033.75
2022-08-03T02:24:32.435Z,101031.88
2022-08-03T02:26:58.807Z,101040.81
2022-08-03T02:29:39.867Z,101037.00
2022-08-03T02:32:07.214Z,101036.75
2022-08-03T02:34:33.603Z,101037.00
2022-08-03T02:36:59.981Z,101025.59
2022-08-03T02:39:26.282Z,101028.06
2022-08-03T02:41:52.594Z,101025.88
2022-08-03T02:44:18.957Z,101034.84
2022-08-03T02:46:46.281Z,101020.44
2022-08-03T02:49:40.676Z,101031.31
2022-08-03T02:51:58.994Z,101033.75
2022-08-03T02:54:25.577Z,101033.19
2022-08-03T02:56:51.933Z,101030.47
2022-08-03T02:59:18.474Z,101028.84
2022-08-03T03:01:44.954Z,101032.66
2022-08-03T03:04:11.315Z,101034.28
2022-08-03T03:06:39.450Z,101033.75
2022-08-03T03:09:06.206Z,101036.22
2022-08-03T03:11:32.581Z,101035.38
2022-08-03T03:13:58.960Z,101032.94
2022-08-03T03:16:25.297Z,101040.25
2022-08-03T03:18:51.605Z,101029.38
2022-08-03T03:21:18.097Z,101032.09
2022-08-03T03:23:44.515Z,101018.50
2022-08-03T03:26:10.859Z,101025.03
2022-08-03T03:28:37.354Z,101025.03
2022-08-03T03:31:03.718Z,101026.97
2022-08-03T03:33:30.035Z,101031.56
2022-08-03T03:35:56.546Z,101032.41
2022-08-03T03:38:22.903Z,101030.75
2022-08-03T03:40:49.265Z,101028.59
2022-08-03T03:43:15.579Z,101031.31
2022-08-03T03:45:42.042Z,101030.75
2022-08-03T03:48:08.558Z,101027.22
2022-08-03T03:50:34.876Z,101033.47
2022-08-03T03:53:01.326Z,101027.50
2022-08-03T03:55:27.693Z,101028.28
2022-08-03T03:57:54.030Z,101033.72
2022-08-03T04:00:20.385Z,101037.53
2022-08-03T04:02:46.826Z,101030.47
2022-08-03T04:05:13.141Z,101030.47
2022-08-03T04:07:39.589Z,101034.03
2022-08-03T04:10:14.883Z,101044.06
2022-08-03T04:12:50.571Z,101040.53
2022-08-03T04:15:17.219Z,101039.72
2022-08-03T04:17:43.727Z,101039.47
2022-08-03T04:20:10.143Z,101049.78
2022-08-03T04:22:36.467Z,101040.81
2022-08-03T04:25:02.832Z,101041.88
2022-08-03T04:27:29.218Z,101051.69
2022-08-03T04:29:55.596Z,101048.41
2022-08-03T04:32:22.087Z,101051.13
2022-08-03T04:34:48.399Z,101054.69
2022-08-03T04:37:14.755Z,101056.56
2022-08-03T04:39:41.366Z,101058.47
2022-08-03T04:42:09.138Z,101056.84
2022-08-03T04:44:35.648Z,101059.28
2022-08-03T04:47:01.977Z,101056.03
2022-08-03T04:49:28.916Z,101060.38
2022-08-03T04:51:55.580Z,101059.56
2022-08-03T04:54:21.919Z,101069.66
2022-08-03T04:56:48.269Z,101064.19
2022-08-03T04:59:14.600Z,101059.56
2022-08-03T05:01:40.995Z,101073.44
2022-08-03T05:04:07.347Z,101074.25
2022-08-03T05:06:33.782Z,101071.28
2022-08-03T05:09:01.751Z,101071.28
2022-08-03T05:11:28.262Z,101076.13
2022-08-03T05:13:54.694Z,101078.88
2022-08-03T05:16:21.066Z,101075.88
2022-08-03T05:18:47.380Z,101077.81
2022-08-03T05:21:13.716Z,101078.88
2022-08-03T05:23:40.253Z,101081.59
2022-08-03T05:26:06.539Z,101082.41
2022-08-03T05:28:32.926Z,101080.53
2022-08-03T05:30:59.324Z,101079.69
2022-08-03T05:33:25.862Z,101076.97
2022-08-03T05:36:02.021Z,101079.69
2022-08-03T05:38:34.733Z,101073.44
2022-08-03T05:41:23.439Z,101074.78
2022-08-03T05:43:47.974Z,101074.81
2022-08-03T05:46:14.362Z,101074.25
2022-08-03T05:48:40.716Z,101072.06
2022-08-03T05:51:07.217Z,101075.38
2022-08-03T05:53:33.725Z,101075.09
2022-08-03T05:56:03.660Z,101070.19
2022-08-03T05:58:41.170Z,101075.09
2022-08-03T06:01:07.790Z,101070.44
2022-08-03T06:03:34.175Z,101076.44
2022-08-03T06:06:00.820Z,101073.72
2022-08-03T06:08:27.326Z,101078.34
2022-08-03T06:10:53.742Z,101070.75
2022-08-03T06:13:20.062Z,101078.91
2022-08-03T06:15:46.468Z,101082.41
2022-08-03T06:18:12.813Z,101075.09
2022-08-03T06:20:39.201Z,101072.38
2022-08-03T06:23:06.375Z,101069.66
2022-08-03T06:25:33.853Z,101074.00
2022-08-03T06:28:00.252Z,101071.00
2022-08-03T06:30:26.694Z,101074.84
2022-08-03T06:32:53.185Z,101070.47
2022-08-03T06:35:19.932Z,101078.09
2022-08-03T06:37:46.607Z,101074.25
2022-08-03T06:40:13.896Z,101076.72
2022-08-03T06:42:40.500Z,101077.56
2022-08-03T06:45:06.857Z,101079.19
2022-08-03T06:47:34.037Z,101075.38
2022-08-03T06:50:14.216Z,101078.66
2022-08-03T06:52:43.733Z,101071.84
2022-08-03T06:55:10.617Z,101076.72
2022-08-03T06:57:36.948Z,101074.31
2022-08-03T07:00:08.291Z,101079.47
2022-08-03T07:02:38.105Z,101074.56
2022-08-03T07:05:05.522Z,101076.19
2022-08-03T07:07:31.834Z,101077.03
2022-08-03T07:09:58.456Z,101074.31
2022-08-03T07:12:24.921Z,101077.84
2022-08-03T07:14:51.313Z,101076.75
2022-08-03T07:17:17.943Z,101078.38
2022-08-03T07:19:44.311Z,101071.06
2022-08-03T07:22:10.656Z,101078.13
2022-08-03T07:24:36.991Z,101072.69
2022-08-03T07:27:03.391Z,101078.91
2022-08-03T07:29:34.903Z,101075.13
2022-08-03T07:32:01.267Z,101073.22
2022-08-03T07:34:27.653Z,101074.31
2022-08-03T07:36:54.335Z,101069.97
2022-08-03T07:39:20.683Z,101067.78
2022-08-03T07:41:47.011Z,101072.94
2022-08-03T07:44:13.359Z,101071.88
2022-08-03T07:46:39.789Z,101068.34
2022-08-03T07:49:06.261Z,101071.88
2022-08-03T07:51:32.727Z,101070.00
2022-08-03T07:53:59.228Z,101075.44
2022-08-03T07:56:25.916Z,101065.38
2022-08-03T07:58:52.298Z,101070.81
2022-08-03T08:01:18.715Z,101068.09
2022-08-03T08:03:53.409Z,101071.34
2022-08-03T08:06:20.558Z,101065.91
2022-08-03T08:08:48.908Z,101065.66
2022-08-03T08:11:15.287Z,101066.75
2022-08-03T08:13:41.726Z,101068.38
2022-08-03T08:16:08.223Z,101070.25
2022-08-03T08:18:34.662Z,101064.56
2022-08-03T08:21:01.073Z,101055.03
2022-08-03T08:23:41.936Z,101062.09
2022-08-03T08:26:09.963Z,101056.38
2022-08-03T08:28:36.294Z,101056.38
2022-08-03T08:31:02.840Z,101051.78
2022-08-03T08:33:42.506Z,101061.56
2022-08-03T08:36:15.868Z,101061.56
2022-08-03T08:38:42.348Z,101046.34
2022-08-03T08:41:08.844Z,101062.66
2022-08-03T08:43:35.401Z,101058.84
2022-08-03T08:46:02.244Z,101054.22
2022-08-03T08:48:28.679Z,101056.94
2022-08-03T08:50:55.135Z,101058.84
2022-08-03T08:53:26.808Z,101059.41
2022-08-03T08:55:59.207Z,101066.75
2022-08-03T08:58:26.747Z,101062.94
2022-08-03T09:00:53.319Z,101057.47
2022-08-03T09:03:29.422Z,101056.69
2022-08-03T09:05:56.964Z,101054.75
2022-08-03T09:08:23.583Z,101060.19
2022-08-03T09:10:49.973Z,101058.31
2022-08-03T09:13:16.604Z,101052.03
2022-08-03T09:16:00.795Z,101055.59
2022-08-03T09:18:27.717Z,101049.06
2022-08-03T09:21:01.428Z,101047.44
2022-08-03T09:23:58.893Z,101050.69
2022-08-03T09:26:27.423Z,101051.50
2022-08-03T09:29:00.808Z,101055.03
2022-08-03T09:31:30.669Z,101039.78
2022-08-03T09:33:56.963Z,101042.50
2022-08-03T09:36:23.777Z,101034.34
2022-08-03T09:38:50.318Z,101029.72
2022-08-03T09:41:16.681Z,101044.97
2022-08-03T09:43:43.356Z,101035.97
2022-08-03T09:46:09.952Z,101036.78
2022-08-03T09:48:36.657Z,101033.25
2022-08-03T09:51:13.349Z,101043.06
2022-08-03T09:53:59.696Z,101032.97
2022-08-03T09:56:34.285Z,101030.25
2022-08-03T09:59:03.212Z,101036.53
2022-08-03T10:01:29.565Z,101026.47
2022-08-03T10:04:04.190Z,101025.66
2022-08-03T10:06:31.222Z,101022.66
2022-08-03T10:08:57.569Z,101021.81
2022-08-03T10:11:27.400Z,101015.28
2022-08-03T10:13:57.953Z,101014.50
2022-08-03T10:16:27.970Z,101009.03
2022-08-03T10:18:54.335Z,101015.59
2022-08-03T10:21:20.728Z,101010.94
2022-08-03T10:23:47.210Z,101011.50
2022-08-03T10:26:13.590Z,101009.84
2022-08-03T10:28:44.779Z,101003.59
2022-08-03T10:31:11.815Z,101012.28
2022-08-03T10:33:51.149Z,101012.28
2022-08-03T10:36:19.034Z,101004.97
2022-08-03T10:38:45.629Z,101004.97
2022-08-03T10:41:11.912Z,100995.97
2022-08-03T10:43:38.244Z,101001.41
2022-08-03T10:46:04.579Z,101003.84
2022-08-03T10:48:31.370Z,100992.97
2022-08-03T10:50:57.683Z,100993.81
2022-08-03T10:53:24.138Z,100996.53
2022-08-03T10:55:50.464Z,100989.16
2022-08-03T10:58:30.320Z,100987.25
2022-08-03T11:00:57.216Z,100988.88
2022-08-03T11:03:25.874Z,100982.63
2022-08-03T11:05:52.314Z,100978.00
2022-08-03T11:08:18.731Z,100985.38
2022-08-03T11:10:45.084Z,100985.38
2022-08-03T11:13:11.608Z,100983.44
2022-08-03T11:15:43.124Z,100979.91
2022-08-03T11:18:11.198Z,100974.47
2022-08-03T11:20:37.884Z,100976.09
2022-08-03T11:23:04.330Z,100980.44
2022-08-03T11:25:55.052Z,100975.00
2022-08-03T11:28:16.986Z,100977.72
2022-08-03T11:30:46.668Z,100976.63
2022-08-03T11:33:12.995Z,100972.28
2022-08-03T11:35:39.450Z,100972.28
2022-08-03T11:38:05.853Z,100977.72
2022-08-03T11:40:32.185Z,100977.47
2022-08-03T11:42:58.528Z,100972.00
2022-08-03T11:45:24.965Z,100970.38
2022-08-03T11:47:51.622Z,100975.56
2022-08-03T11:50:18.069Z,100968.19
2022-08-03T11:52:44.462Z,100959.22
2022-08-03T11:55:10.804Z,100961.94
2022-08-03T11:59:17.464Z,100962.75
2022-08-03T12:00:23.618Z,100966.28
2022-08-03T12:02:52.525Z,100956.50
2022-08-03T12:05:19.025Z,100953.47
2022-08-03T12:08:03.930Z,100957.84
2022-08-03T12:10:31.934Z,100958.66
2022-08-03T12:12:58.300Z,100962.47
2022-08-03T12:15:24.779Z,100953.22
2022-08-03T12:17:54.789Z,100957.84
2022-08-03T12:20:34.415Z,100952.41
2022-08-03T12:23:05.527Z,100948.59
2022-08-03T12:25:39.213Z,100945.03
2022-08-03T12:28:06.303Z,100937.44
2022-08-03T12:30:52.837Z,100940.16
2022-08-03T12:33:19.319Z,100934.72
2022-08-03T12:35:52.546Z,100933.06
2022-08-03T12:38:20.946Z,100932.78
2022-08-03T12:40:47.365Z,100930.88
2022-08-03T12:43:13.726Z,100931.72
2022-08-03T12:45:40.211Z,100935.22
2022-08-03T12:48:06.509Z,100922.44
2022-08-03T12:50:32.936Z,100927.91
2022-08-03T12:52:59.486Z,100918.91
2022-08-03T12:55:25.836Z,100919.72
2022-08-03T12:57:52.607Z,100922.19
2022-08-03T13:00:21.492Z,100924.06
2022-08-03T13:03:24.820Z,100925.69
2022-08-03T13:05:41.988Z,100919.19
2022-08-03T13:08:08.414Z,100922.69
2022-08-03T13:10:37.815Z,100917.25
2022-08-03T13:13:04.103Z,100923.53
2022-08-03T13:15:33.597Z,100924.31
2022-08-03T13:18:10.945Z,100908.00
2022-08-03T13:20:37.339Z,100912.38
2022-08-03T13:23:03.672Z,100917.81
2022-08-03T13:25:30.146Z,100915.09
2022-08-03T13:28:12.469Z,100915.88
2022-08-03T13:30:40.640Z,100913.16
2022-08-03T13:33:06.934Z,100906.91
2022-08-03T13:35:33.323Z,100911.28
2022-08-03T13:37:59.739Z,100910.44
2022-08-03T13:40:30.181Z,100910.16
2022-08-03T13:42:56.880Z,100896.56
2022-08-03T13:45:23.268Z,100906.63
2022-08-03T13:47:49.566Z,100899.28
2022-08-03T13:50:15.913Z,100889.22
2022-08-03T13:52:42.263Z,100890.84
2022-08-03T13:55:08.775Z,100897.09
2022-08-03T13:58:03.617Z,100892.47
2022-08-03T14:00:28.168Z,100888.63
2022-08-03T14:03:01.794Z,100885.91
2022-08-03T14:05:29.529Z,100880.19
2022-08-03T14:07:58.658Z,100875.84
2022-08-03T14:10:31.871Z,100881.28
2022-08-03T14:12:58.165Z,100879.91
2022-08-03T14:15:24.518Z,100872.56
2022-08-03T14:17:50.855Z,100869.84
2022-08-03T14:20:36.598Z,100876.09
2022-08-03T14:23:03.683Z,100871.47
2022-08-03T14:25:29.979Z,100876.91
2022-08-03T14:28:09.825Z,100870.09
2022-08-03T14:30:36.195Z,100860.31
2022-08-03T14:33:02.649Z,100865.47
2022-08-03T14:35:28.982Z,100870.94
2022-08-03T14:37:55.389Z,100865.47
2022-08-03T14:40:21.982Z,100868.19
2022-08-03T14:42:48.268Z,100864.09
2022-08-03T14:45:20.506Z,100871.19
2022-08-03T14:50:29.163Z,100863.00
2022-08-03T14:50:42.062Z,100856.47
2022-08-03T14:53:11.906Z,100861.91
2022-08-03T14:55:49.643Z,100867.91
2022-08-03T14:58:19.607Z,100857.81
2022-08-03T15:00:47.287Z,100859.47
2022-08-03T15:03:15.782Z,100864.59
2022-08-03T15:05:43.627Z,100859.97
2022-08-03T15:08:09.974Z,100855.34
2022-08-03T15:10:40.342Z,100855.34
2022-08-03T15:13:10.986Z,100855.09
2022-08-03T15:15:37.415Z,100843.09
2022-08-03T15:18:03.800Z,100847.69
2022-08-03T15:20:42.999Z,100839.53
2022-08-03T15:23:10.602Z,100836.28
2022-08-03T15:26:07.093Z,100837.91
2022-08-03T15:28:23.500Z,100839.53
2022-08-03T15:30:49.818Z,100833.28
2022-08-03T15:33:16.198Z,100828.63
2022-08-03T15:35:42.565Z,100822.13
2022-08-03T15:38:09.665Z,100834.63
2022-08-03T15:40:36.278Z,100827.25
2022-08-03T15:43:02.662Z,100823.47
2022-08-03T15:45:35.377Z,100827.81
2022-08-03T15:48:02.823Z,100827.53
2022-08-03T15:50:29.139Z,100828.31
2022-08-03T15:52:55.707Z,100826.44
2022-08-03T15:55:22.341Z,100826.16
2022-08-03T15:59:03.436Z,100824.53
2022-08-03T16:00:35.113Z,100822.31
2022-08-03T16:03:01.527Z,100828.59
2022-08-03T16:05:27.898Z,100826.66
2022-08-03T16:08:02.525Z,100825.59
2022-08-03T16:10:29.670Z,100819.84
2022-08-03T16:12:56.007Z,100821.75
2022-08-03T16:15:22.411Z,100822.56
2022-08-03T16:17:49.107Z,100808.66
2022-08-03T16:20:33.782Z,100821.19
2022-08-03T16:23:05.524Z,100813.00
2022-08-03T16:25:38.040Z,100809.22
2022-08-03T16:28:08.204Z,100807.28
2022-08-03T16:30:39.046Z,100809.72
2022-08-03T16:33:05.449Z,100808.94
2022-08-03T16:35:31.735Z,100807.81
2022-08-03T16:37:58.046Z,100803.16
2022-08-03T16:40:24.580Z,100810.56
2022-08-03T16:42:50.906Z,100800.44
2022-08-03T16:45:17.263Z,100806.72
2022-08-03T16:47:43.872Z,100801.28
2022-08-03T16:50:15.946Z,100804.81
2022-08-03T16:52:47.229Z,100804.81
2022-08-03T16:55:15.368Z,100802.91
2022-08-03T16:57:58.226Z,100804.81
2022-08-03T17:00:34.600Z,100807.56
2022-08-03T17:03:19.066Z,100808.34
2022-08-03T17:05:50.669Z,100806.44
2022-08-03T17:08:26.184Z,100820.06
2022-08-03T17:10:53.550Z,100814.63
2022-08-03T17:13:22.082Z,100815.72
2022-08-03T17:15:58.022Z,100813.50
2022-08-03T17:18:27.529Z,100818.44
2022-08-03T17:20:53.934Z,100813.78
2022-08-03T17:23:35.334Z,100819.25
2022-08-03T17:26:04.120Z,100813.00
2022-08-03T17:28:48.702Z,100815.72
2022-08-03T17:31:23.345Z,100828.25
2022-08-03T17:33:57.312Z,100831.78
2022-08-03T17:36:23.680Z,100821.97
2022-08-03T17:38:56.263Z,100828.25
2022-08-03T17:41:22.726Z,100829.34
2022-08-03T17:44:14.955Z,100828.53
2022-08-03T17:46:35.676Z,100837.53
2022-08-03T17:49:25.119Z,100833.69
2022-08-03T17:51:53.063Z,100836.69
2022-08-03T17:54:22.497Z,100841.03
2022-08-03T17:56:53.437Z,100837.53
2022-08-03T17:59:50.892Z,100833.16
2022-08-03T18:02:18.493Z,100837.53
2022-08-03T18:04:55.197Z,100840.25
2022-08-03T18:07:23.654Z,100833.16
2022-08-03T18:10:11.244Z,100838.59
2022-08-03T18:12:41.550Z,100834.78
2022-08-03T18:17:55.001Z,100834.78
2022-08-03T18:20:31.177Z,100842.44
2022-08-03T18:23:01.284Z,100836.97
2022-08-03T18:25:42.912Z,100838.59
2022-08-03T18:28:12.528Z,100844.88
2022-08-03T18:30:53.936Z,100847.88
2022-08-03T18:34:19.532Z,100843.25
2022-08-03T18:36:07.810Z,100838.59
2022-08-03T18:38:35.559Z,100842.44
2022-08-03T18:41:02.181Z,100845.97
2022-08-03T18:43:46.375Z,100840.53
2022-08-03T18:46:13.507Z,100837.53
2022-08-03T18:48:40.674Z,100845.69
2022-08-03T18:51:12.398Z,100840.25
2022-08-03T18:54:03.245Z,100850.03
2022-08-03T18:56:32.455Z,100846.78
2022-08-03T18:59:02.438Z,100844.59
2022-08-03T19:02:00.661Z,100848.44
2022-08-03T19:04:15.699Z,100850.03
2022-08-03T19:06:43.287Z,100852.78
2022-08-03T19:09:10.462Z,100859.03
2022-08-03T19:12:11.289Z,100857.13
2022-08-03T19:14:28.823Z,100861.78
2022-08-03T19:16:55.982Z,100860.94
2022-08-03T19:19:22.655Z,100856.31
2022-08-03T19:21:51.184Z,100858.22
2022-08-03T19:24:17.519Z,100859.03
2022-08-03T19:29:58.036Z,100863.41
2022-08-03T19:32:17.194Z,100854.38
2022-08-03T19:34:46.709Z,100859.84
2022-08-03T19:37:14.611Z,100856.31
2022-08-03T19:39:41.779Z,100859.84
2022-08-03T19:42:12.191Z,100862.56
2022-08-03T19:44:46.510Z,100864.50
2022-08-03T19:47:16.945Z,100868.03
2022-08-03T19:49:57.749Z,100864.50
2022-08-03T19:52:31.615Z,100857.13
2022-08-03T19:54:58.159Z,100864.19
2022-08-03T19:57:26.827Z,100860.66
2022-08-03T19:59:53.275Z,100855.22
2022-08-03T20:02:26.732Z,100851.66
2022-08-03T20:04:53.971Z,100857.13
2022-08-03T20:07:22.790Z,100853.28
2022-08-03T20:09:49.946Z,100850.56
2022-08-03T20:12:27.713Z,100850.56
2022-08-03T20:14:56.957Z,100849.75
2022-08-03T20:17:23.229Z,100848.16
2022-08-03T20:20:09.613Z,100844.31
2022-08-03T20:22:35.978Z,100845.13
2022-08-03T20:25:05.548Z,100849.75
2022-08-03T20:27:31.949Z,100847.84
2022-08-03T20:30:18.387Z,100847.03
2022-08-03T20:32:52.670Z,100846.22
2022-08-03T20:35:19.068Z,100847.03
2022-08-03T20:37:46.509Z,100847.84
2022-08-03T20:40:12.842Z,100843.50
2022-08-03T20:42:40.567Z,100843.50
2022-08-03T20:45:15.128Z,100848.94
2022-08-03T20:47:53.300Z,100845.13
2022-08-03T20:50:19.936Z,100845.13
2022-08-03T20:52:49.812Z,100848.94
2022-08-03T20:55:17.018Z,100845.13
2022-08-03T20:57:49.013Z,100854.38
2022-08-03T21:00:15.662Z,100856.31
2022-08-03T21:02:42.046Z,100854.38
2022-08-03T21:05:09.097Z,100854.38
2022-08-03T21:08:04.222Z,100853.28
2022-08-03T21:10:22.015Z,100848.94
2022-08-03T21:12:54.308Z,100851.66
2022-08-03T21:12:57.371Z,100840.53
2022-08-03T21:13:08.414Z,100857.13
2022-08-03T21:16:06.099Z,100855.22
2022-08-03T21:18:07.247Z,100851.66
2022-08-03T21:20:33.605Z,100859.84
2022-08-03T21:22:59.907Z,100854.38
2022-08-03T21:25:26.272Z,100854.38
2022-08-03T21:27:52.615Z,100854.38
2022-08-03T21:30:19.159Z,100853.59
2022-08-03T21:32:45.505Z,100854.38
2022-08-03T21:35:12.747Z,100854.38
2022-08-03T21:37:39.037Z,100856.31
2022-08-03T21:40:05.404Z,100856.31
2022-08-03T21:42:31.784Z,100858.22
2022-08-03T21:44:58.153Z,100857.13
2022-08-03T21:47:24.635Z,100861.78
2022-08-03T21:50:02.621Z,100852.78
2022-08-03T21:52:34.385Z,100852.50
2022-08-03T21:55:00.796Z,100847.31
2022-08-03T21:57:27.260Z,100848.94
2022-08-03T21:59:53.614Z,100852.78
2022-08-03T22:02:23.994Z,100845.69
2022-08-03T22:04:55.978Z,100854.66
2022-08-03T22:07:23.680Z,100851.66
2022-08-03T22:09:51.571Z,100839.16
2022-08-03T22:12:18.118Z,100848.94
2022-08-03T22:14:44.521Z,100841.88
2022-08-03T22:17:10.863Z,100849.22
2022-08-03T22:19:37.494Z,100850.88
2022-08-03T22:22:03.916Z,100850.03
2022-08-03T22:24:30.454Z,100847.31
2022-08-03T22:26:56.767Z,100841.88
2022-08-03T22:29:23.117Z,100849.22
2022-08-03T22:31:58.753Z,100845.69
2022-08-03T22:34:26.757Z,100844.59
2022-08-03T22:36:53.337Z,100847.31
2022-08-03T22:39:25.991Z,100853.59
2022-08-03T22:41:52.505Z,100850.03
2022-08-03T22:44:19.029Z,100850.88
2022-08-03T22:46:45.448Z,100858.22
2022-08-03T22:49:11.821Z,100856.59
2022-08-03T22:51:38.278Z,100860.13
2022-08-03T22:54:06.932Z,100854.66
2022-08-03T22:56:33.668Z,100847.31
2022-08-03T22:59:41.162Z,100859.31
2022-08-03T23:01:50.454Z,100851.16
2022-08-03T23:04:17.212Z,100855.50
2022-08-03T23:06:43.806Z,100856.59
2022-08-03T23:09:10.317Z,100859.31
2022-08-03T23:11:36.696Z,100850.31
2022-08-03T23:14:04.032Z,100855.78
2022-08-03T23:16:30.531Z,100852.78
2022-08-03T23:18:56.939Z,100851.16
2022-08-03T23:21:59.827Z,100852.22
2022-08-03T23:24:25.570Z,100855.78
2022-08-03T23:26:57.083Z,100857.66
2022-08-03T23:29:23.545Z,100863.66
2022-08-03T23:31:50.013Z,100854.94
2022-08-03T23:34:16.907Z,100854.94
2022-08-03T23:36:43.236Z,100848.69
2022-08-03T23:39:09.578Z,100849.50
2022-08-03T23:41:35.967Z,100849.50
2022-08-03T23:44:02.342Z,100845.16
2022-08-03T23:46:30.115Z,100856.59
2022-08-03T23:48:56.763Z,100853.31
2022-08-03T23:51:23.421Z,100847.06
2022-08-03T23:53:49.700Z,100854.16
2022-08-03T23:56:16.128Z,100853.31
2022-08-03T23:58:42.508Z,100856.03
